Time;durP1;ratioP1;P1;durP2;ratioP2;P2;SDS_P1;SDS_P2;PMS_P1;PMS_P2;Temp;Humidity;BMP_temperature;BMP_pressure;BME280_temperature;BME280_humidity;BME280_pressure;Samples;Min_cycle;Max_cycle;Signal;HPM_P1;HPM_P2
2021/10/21 00:01:49;;;;;;;0.10;0.10;;;15.00;99.90;;;;;;5014528;28;20022;-76
2021/10/21 00:04:15;;;;;;;0.10;0.10;;;15.00;99.90;;;;;;5013247;28;20032;-76
2021/10/21 00:06:41;;;;;;;0.10;0.10;;;15.00;99.90;;;;;;5015709;28;20025;-76
2021/10/21 00:09:07;;;;;;;0.10;0.10;;;15.00;99.90;;;;;;5015490;28;20474;-76
2021/10/21 00:11:34;;;;;;;0.10;0.10;;;15.00;99.90;;;;;;5013385;28;20053;-76
2021/10/21 00:14:00;;;;;;;0.10;0.10;;;15.00;99.90;;;;;;5015273;28;20042;-76
2021/10/21 00:16:27;;;;;;;0.10;0.10;;;15.10;99.90;;;;;;5013205;28;20022;-76
2021/10/21 00:18:53;;;;;;;0.20;0.20;;;15.00;99.90;;;;;;5013936;28;20092;-75
2021/10/21 00:21:19;;;;;;;0.10;0.10;;;15.00;99.90;;;;;;5014922;28;20057;-76
2021/10/21 00:23:45;;;;;;;0.10;0.10;;;15.00;99.90;;;;;;5013791;28;20102;-75
2021/10/21 00:26:11;;;;;;;0.20;0.20;;;15.00;99.90;;;;;;5014586;28;20022;-75
2021/10/21 00:28:37;;;;;;;0.68;0.40;;;14.90;99.90;;;;;;5013631;28;20426;-76
2021/10/21 00:31:04;;;;;;;0.65;0.50;;;14.70;99.90;;;;;;5013779;28;20060;-76
2021/10/21 00:33:29;;;;;;;0.30;0.30;;;14.60;99.90;;;;;;5014600;28;20075;-76
2021/10/21 00:35:55;;;;;;;0.35;0.30;;;14.50;99.90;;;;;;5014458;28;20054;-76
2021/10/21 00:38:21;;;;;;;0.55;0.35;;;14.50;99.90;;;;;;5012870;28;20053;-76
2021/10/21 00:40:46;;;;;;;0.32;0.20;;;14.60;99.90;;;;;;5014722;28;20079;-76
2021/10/21 00:43:12;;;;;;;0.20;0.20;;;14.60;99.90;;;;;;5013864;28;20433;-76
2021/10/21 00:45:38;;;;;;;0.40;0.30;;;14.70;99.90;;;;;;5013345;28;20435;-77
2021/10/21 00:48:04;;;;;;;0.45;0.20;;;14.70;99.90;;;;;;5014822;28;20470;-76
2021/10/21 00:50:31;;;;;;;0.20;0.20;;;14.70;99.90;;;;;;5029202;28;20025;-76
2021/10/21 00:52:58;;;;;;;0.20;0.20;;;14.70;99.90;;;;;;5013136;28;20029;-76
2021/10/21 00:55:25;;;;;;;0.88;0.20;;;14.70;99.90;;;;;;5012616;28;20029;-76
2021/10/21 00:57:51;;;;;;;0.55;0.30;;;14.70;99.90;;;;;;5014374;28;20030;-76
2021/10/21 01:00:17;;;;;;;0.45;0.20;;;14.60;99.90;;;;;;5013838;28;20030;-76
2021/10/21 01:02:43;;;;;;;0.60;0.35;;;14.60;99.90;;;;;;5013136;28;20367;-75
2021/10/21 01:05:09;;;;;;;0.30;0.30;;;14.60;99.90;;;;;;5014331;28;20030;-75
2021/10/21 01:07:36;;;;;;;0.40;0.40;;;14.50;99.90;;;;;;5028901;28;20033;-75
2021/10/21 01:10:10;;;;;;;0.20;0.20;;;14.60;99.90;;;;;;5012870;28;20363;-75
2021/10/21 01:12:36;;;;;;;0.75;0.32;;;14.60;99.90;;;;;;5013672;28;20454;-76
2021/10/21 01:15:21;;;;;;;1.25;0.47;;;14.60;99.90;;;;;;5012967;28;20025;-76
2021/10/21 01:17:49;;;;;;;1.00;0.52;;;14.50;99.90;;;;;;4996646;28;20042;-76
2021/10/21 01:20:15;;;;;;;0.35;0.35;;;14.40;99.90;;;;;;5013410;28;20030;-76
2021/10/21 01:22:46;;;;;;;0.63;0.50;;;14.40;99.90;;;;;;5013771;28;20080;-75
2021/10/21 01:25:12;;;;;;;0.70;0.50;;;14.30;99.90;;;;;;5014152;28;20118;-74
2021/10/21 01:27:38;;;;;;;0.38;0.25;;;14.20;99.90;;;;;;5012901;28;20375;-74
2021/10/21 01:30:04;;;;;;;0.30;0.20;;;14.20;99.90;;;;;;5013632;28;20098;-75
2021/10/21 01:32:34;;;;;;;0.47;0.30;;;14.10;99.90;;;;;;5011863;28;20014;-75
2021/10/21 01:35:01;;;;;;;0.43;0.20;;;14.10;99.90;;;;;;5013474;28;20052;-75
2021/10/21 01:37:28;;;;;;;0.40;0.38;;;14.10;99.90;;;;;;5028180;28;20068;-76
2021/10/21 01:39:53;;;;;;;0.30;0.30;;;14.00;99.90;;;;;;5013793;28;20030;-75
2021/10/21 01:42:19;;;;;;;0.43;0.30;;;13.80;99.90;;;;;;5011652;28;20080;-76
2021/10/21 01:44:44;;;;;;;0.40;0.40;;;13.80;99.90;;;;;;5013553;28;20050;-75
2021/10/21 01:47:10;;;;;;;0.35;0.35;;;13.80;99.90;;;;;;5013784;28;20030;-75
2021/10/21 01:49:36;;;;;;;0.52;0.35;;;13.60;99.90;;;;;;5012769;28;20196;-75
2021/10/21 01:52:02;;;;;;;0.60;0.30;;;13.60;99.90;;;;;;5012103;28;20030;-75
2021/10/21 01:54:27;;;;;;;0.25;0.20;;;13.40;99.90;;;;;;5011460;28;20044;-76
2021/10/21 01:56:53;;;;;;;0.32;0.32;;;13.30;99.90;;;;;;5013026;28;20458;-77
2021/10/21 01:59:18;;;;;;;0.22;0.22;;;13.20;99.90;;;;;;5012458;28;20057;-75
2021/10/21 02:01:44;;;;;;;0.10;0.10;;;13.10;99.90;;;;;;5013200;28;20100;-75
2021/10/21 02:04:09;;;;;;;0.13;0.13;;;12.90;99.90;;;;;;5027954;28;20123;-75
2021/10/21 02:06:35;;;;;;;0.20;0.20;;;12.70;99.90;;;;;;5010838;28;20026;-75
2021/10/21 02:09:01;;;;;;;0.20;0.20;;;12.70;99.90;;;;;;5011734;28;20443;-75
2021/10/21 02:11:26;;;;;;;0.20;0.20;;;12.60;99.90;;;;;;5012214;28;20450;-75
2021/10/21 02:13:52;;;;;;;0.17;0.17;;;12.60;99.90;;;;;;5012921;28;20030;-75
2021/10/21 02:16:18;;;;;;;0.20;0.20;;;12.50;99.90;;;;;;5013266;28;20030;-76
2021/10/21 02:18:44;;;;;;;0.20;0.20;;;12.50;99.90;;;;;;5011687;28;20360;-75
2021/10/21 02:21:09;;;;;;;0.17;0.17;;;12.50;99.90;;;;;;5012580;28;20493;-76
2021/10/21 02:23:35;;;;;;;0.10;0.10;;;12.40;99.90;;;;;;5012224;28;20076;-76
2021/10/21 02:26:00;;;;;;;0.10;0.10;;;12.30;99.90;;;;;;5027883;28;20026;-75
2021/10/21 02:28:26;;;;;;;0.20;0.20;;;12.30;99.90;;;;;;5027255;28;20084;-76
2021/10/21 02:30:52;;;;;;;0.20;0.20;;;12.30;99.90;;;;;;5012700;28;20053;-75
2021/10/21 02:33:17;;;;;;;0.65;0.20;;;12.20;99.90;;;;;;5012699;28;20095;-74
2021/10/21 02:35:43;;;;;;;0.20;0.20;;;12.10;99.90;;;;;;5010469;28;20056;-74
2021/10/21 02:38:11;;;;;;;0.20;0.20;;;12.10;99.90;;;;;;5012461;28;20021;-76
2021/10/21 02:40:37;;;;;;;0.20;0.20;;;12.10;99.90;;;;;;5010636;28;20030;-75
2021/10/21 02:43:03;;;;;;;0.15;0.15;;;12.20;99.90;;;;;;5012515;28;20033;-76
2021/10/21 02:45:29;;;;;;;0.20;0.20;;;12.10;99.90;;;;;;5011892;28;20022;-75
2021/10/21 02:47:55;;;;;;;0.10;0.10;;;12.10;99.90;;;;;;5012494;28;20026;-75
2021/10/21 02:50:21;;;;;;;0.20;0.20;;;12.20;99.90;;;;;;5026973;28;20049;-76
2021/10/21 02:52:46;;;;;;;0.20;0.20;;;12.20;99.90;;;;;;5012519;28;20044;-75
2021/10/21 02:55:12;;;;;;;0.10;0.10;;;12.20;99.90;;;;;;5012359;28;20041;-75
2021/10/21 02:57:38;;;;;;;0.20;0.20;;;12.20;99.90;;;;;;5011695;28;20029;-75
2021/10/21 03:00:06;;;;;;;0.15;0.15;;;12.20;99.90;;;;;;5012286;28;20029;-75
2021/10/21 03:02:31;;;;;;;0.10;0.10;;;12.20;99.90;;;;;;5011614;28;20029;-75
2021/10/21 03:04:57;;;;;;;0.10;0.10;;;12.20;99.90;;;;;;5012207;28;20030;-75
2021/10/21 03:07:23;;;;;;;0.20;0.20;;;12.30;99.90;;;;;;5011619;28;20101;-75
2021/10/21 03:09:48;;;;;;;0.20;0.20;;;12.30;99.90;;;;;;5012263;28;20026;-75
2021/10/21 03:12:14;;;;;;;0.10;0.10;;;12.30;99.90;;;;;;5010774;28;20041;-76
2021/10/21 03:14:40;;;;;;;0.13;0.13;;;12.30;99.90;;;;;;5010210;28;20014;-76
2021/10/21 03:17:07;;;;;;;0.20;0.20;;;12.40;99.90;;;;;;5010505;28;20022;-77
2021/10/21 03:19:33;;;;;;;0.10;0.10;;;12.40;99.90;;;;;;5000983;28;20026;-76
2021/10/21 03:21:59;;;;;;;0.20;0.20;;;12.40;99.90;;;;;;5013559;28;20028;-77
2021/10/21 03:24:25;;;;;;;0.17;0.17;;;12.40;99.90;;;;;;5001668;28;20022;-77
2021/10/21 03:26:51;;;;;;;0.10;0.10;;;12.40;99.90;;;;;;4998785;28;20084;-77
2021/10/21 03:29:16;;;;;;;0.20;0.20;;;12.30;99.90;;;;;;5015961;28;20022;-76
2021/10/21 03:31:42;;;;;;;0.15;0.15;;;12.30;99.90;;;;;;5009368;28;20029;-76
2021/10/21 03:34:08;;;;;;;0.20;0.20;;;12.30;99.90;;;;;;5004835;28;20057;-76
2021/10/21 03:36:34;;;;;;;0.20;0.20;;;12.30;99.90;;;;;;5012501;28;20046;-76
2021/10/21 03:38:59;;;;;;;1.35;0.20;;;12.30;99.90;;;;;;5005617;28;20038;-76
2021/10/21 03:41:25;;;;;;;0.20;0.20;;;12.30;99.90;;;;;;5002998;28;20018;-77
2021/10/21 03:43:51;;;;;;;0.10;0.10;;;12.30;99.90;;;;;;4996540;28;20077;-77
2021/10/21 03:46:17;;;;;;;0.22;0.22;;;12.30;99.90;;;;;;5011318;28;20027;-77
2021/10/21 03:48:42;;;;;;;0.10;0.10;;;12.40;99.90;;;;;;4995890;28;20486;-77
2021/10/21 03:51:08;;;;;;;0.10;0.10;;;12.40;99.90;;;;;;5009842;28;20021;-77
2021/10/21 03:53:33;;;;;;;0.10;0.10;;;12.40;99.90;;;;;;5010605;28;20388;-77
2021/10/21 03:55:59;;;;;;;0.20;0.20;;;12.30;99.90;;;;;;5012519;28;20026;-76
2021/10/21 03:58:25;;;;;;;0.17;0.17;;;12.30;99.90;;;;;;5004245;28;20026;-76
2021/10/21 04:00:51;;;;;;;0.35;0.35;;;12.30;99.90;;;;;;4994407;28;20507;-76
2021/10/21 04:03:17;;;;;;;0.10;0.10;;;12.40;99.90;;;;;;4993904;28;20129;-76
2021/10/21 04:05:42;;;;;;;0.10;0.10;;;12.40;99.90;;;;;;5004102;28;20418;-76
2021/10/21 04:08:08;;;;;;;0.15;0.15;;;12.40;99.90;;;;;;4994626;28;20022;-76
2021/10/21 04:10:34;;;;;;;0.20;0.20;;;12.50;99.90;;;;;;4992715;28;20114;-76
2021/10/21 04:12:59;;;;;;;0.10;0.10;;;12.50;99.90;;;;;;5008488;28;20118;-77
2021/10/21 04:15:25;;;;;;;0.15;0.15;;;12.50;99.90;;;;;;5009117;28;20085;-76
2021/10/21 04:17:52;;;;;;;0.10;0.10;;;12.50;99.90;;;;;;4999785;28;20117;-77
2021/10/21 04:20:19;;;;;;;0.10;0.10;;;12.50;99.90;;;;;;5004041;28;20029;-76
2021/10/21 04:22:45;;;;;;;0.15;0.15;;;12.50;99.90;;;;;;5007699;28;20030;-76
2021/10/21 04:25:11;;;;;;;0.10;0.10;;;12.50;99.90;;;;;;5001490;28;20029;-77
2021/10/21 04:27:36;;;;;;;0.17;0.17;;;12.50;99.90;;;;;;5004553;28;20038;-77
2021/10/21 04:30:04;;;;;;;0.10;0.10;;;12.50;99.90;;;;;;5011472;28;20107;-77
2021/10/21 04:32:30;;;;;;;0.10;0.10;;;12.40;99.90;;;;;;5022440;28;20091;-78
2021/10/21 04:34:57;;;;;;;0.22;0.20;;;12.40;99.90;;;;;;5014577;28;20455;-78
2021/10/21 04:37:22;;;;;;;0.20;0.20;;;12.30;99.90;;;;;;5014673;28;20102;-78
2021/10/21 04:39:48;;;;;;;0.10;0.10;;;12.30;99.90;;;;;;5014337;28;20030;-79
2021/10/21 04:42:14;;;;;;;0.30;0.20;;;12.30;99.90;;;;;;5013534;28;20025;-79
2021/10/21 04:44:42;;;;;;;0.15;0.15;;;12.20;99.90;;;;;;5014226;28;20018;-79
2021/10/21 04:47:08;;;;;;;0.10;0.10;;;12.20;99.90;;;;;;5014813;28;20113;-77
2021/10/21 04:49:34;;;;;;;0.20;0.20;;;12.20;99.90;;;;;;5029209;28;20422;-80
2021/10/21 04:51:59;;;;;;;0.20;0.20;;;12.30;99.90;;;;;;5014703;28;20026;-77
2021/10/21 04:54:25;;;;;;;0.20;0.20;;;12.20;99.90;;;;;;5013382;28;20022;-77
2021/10/21 04:56:51;;;;;;;0.10;0.10;;;12.20;99.90;;;;;;5013622;28;20478;-77
2021/10/21 04:59:16;;;;;;;0.20;0.20;;;12.20;99.90;;;;;;5013347;28;20018;-78
2021/10/21 05:01:42;;;;;;;0.13;0.13;;;12.30;99.90;;;;;;5013999;28;20029;-77
2021/10/21 05:04:09;;;;;;;0.20;0.20;;;12.30;99.90;;;;;;5013356;28;20068;-77
2021/10/21 05:06:35;;;;;;;0.20;0.20;;;12.40;99.90;;;;;;5012434;28;20489;-77
2021/10/21 05:09:00;;;;;;;0.10;0.10;;;12.30;99.90;;;;;;5014306;28;20026;-77
2021/10/21 05:11:26;;;;;;;0.20;0.20;;;12.30;99.90;;;;;;5029569;28;20137;-77
2021/10/21 05:13:52;;;;;;;0.32;0.20;;;12.30;99.90;;;;;;5013972;28;20129;-77
2021/10/21 05:16:17;;;;;;;0.13;0.13;;;12.40;99.90;;;;;;5029310;28;20431;-77
2021/10/21 05:18:43;;;;;;;0.13;0.13;;;12.40;99.90;;;;;;5013422;28;20034;-77
2021/10/21 05:21:09;;;;;;;0.20;0.20;;;12.40;99.90;;;;;;5013721;28;20030;-77
2021/10/21 05:23:35;;;;;;;0.10;0.10;;;12.40;99.90;;;;;;5028780;28;20017;-77
2021/10/21 05:26:00;;;;;;;0.10;0.10;;;12.40;99.90;;;;;;5014082;28;20346;-77
2021/10/21 05:28:26;;;;;;;0.10;0.10;;;12.50;99.90;;;;;;5014231;28;20025;-77
2021/10/21 05:30:51;;;;;;;0.10;0.10;;;12.50;99.90;;;;;;5013257;28;20034;-78
2021/10/21 05:33:17;;;;;;;0.10;0.10;;;12.50;99.90;;;;;;5012866;28;20022;-78
2021/10/21 05:35:43;;;;;;;0.10;0.10;;;12.50;99.90;;;;;;5027642;28;20374;-77
2021/10/21 05:38:09;;;;;;;0.10;0.10;;;12.50;99.90;;;;;;5013732;28;20065;-77
2021/10/21 05:40:34;;;;;;;0.22;0.15;;;12.50;99.90;;;;;;5011792;28;20026;-76
2021/10/21 05:43:00;;;;;;;0.10;0.10;;;12.40;99.90;;;;;;5028147;28;20018;-77
2021/10/21 05:45:26;;;;;;;0.10;0.10;;;12.40;99.90;;;;;;5028747;28;20112;-78
2021/10/21 05:47:51;;;;;;;0.13;0.13;;;12.40;99.90;;;;;;5013264;28;20022;-78
2021/10/21 05:50:17;;;;;;;0.20;0.20;;;12.30;99.90;;;;;;5013583;28;20405;-78
2021/10/21 05:52:43;;;;;;;0.10;0.10;;;12.10;99.90;;;;;;5012890;28;20430;-78
2021/10/21 05:55:09;;;;;;;0.65;0.20;;;12.00;99.90;;;;;;5013438;28;20025;-78
2021/10/21 05:57:35;;;;;;;0.10;0.10;;;11.90;99.90;;;;;;5011405;28;20029;-77
2021/10/21 06:00:01;;;;;;;0.10;0.10;;;11.80;99.90;;;;;;5013271;28;20054;-78
2021/10/21 06:02:26;;;;;;;0.15;0.15;;;11.70;99.90;;;;;;5012055;28;20014;-78
2021/10/21 06:04:52;;;;;;;0.20;0.20;;;11.50;99.90;;;;;;5012897;28;20391;-77
2021/10/21 06:07:18;;;;;;;0.10;0.10;;;11.50;99.90;;;;;;5028746;28;20030;-78
2021/10/21 06:09:44;;;;;;;0.30;0.20;;;11.40;99.90;;;;;;5012637;28;20060;-78
2021/10/21 06:12:10;;;;;;;0.20;0.20;;;11.30;99.90;;;;;;5028658;28;20113;-78
2021/10/21 06:14:36;;;;;;;0.10;0.10;;;11.20;99.90;;;;;;5012516;28;20026;-77
2021/10/21 06:17:02;;;;;;;0.10;0.10;;;11.20;99.90;;;;;;5028084;28;20018;-78
2021/10/21 06:19:28;;;;;;;0.10;0.10;;;11.20;99.90;;;;;;5013217;28;20028;-77
2021/10/21 06:22:06;;;;;;;0.30;0.20;;;11.10;99.90;;;;;;5012416;28;20048;-78
2021/10/21 06:24:31;;;;;;;0.10;0.10;;;11.10;99.90;;;;;;5028036;28;20050;-77
2021/10/21 06:26:57;;;;;;;0.20;0.20;;;11.10;99.90;;;;;;5012223;28;20091;-77
2021/10/21 06:29:23;;;;;;;0.10;0.10;;;11.10;99.90;;;;;;5012887;28;20022;-77
2021/10/21 06:31:49;;;;;;;0.10;0.10;;;11.10;99.90;;;;;;5011967;28;20021;-78
2021/10/21 06:34:16;;;;;;;0.10;0.10;;;11.10;99.90;;;;;;5011497;28;20072;-75
2021/10/21 06:36:42;;;;;;;0.15;0.13;;;11.10;99.90;;;;;;5011863;28;20046;-77
2021/10/21 06:39:07;;;;;;;0.20;0.20;;;11.10;99.90;;;;;;5012642;28;20037;-78
2021/10/21 06:41:33;;;;;;;0.20;0.20;;;11.10;99.90;;;;;;5012927;28;20025;-77
2021/10/21 06:43:59;;;;;;;0.20;0.20;;;11.10;99.90;;;;;;5011764;28;20024;-76
2021/10/21 06:46:26;;;;;;;0.20;0.20;;;11.00;99.90;;;;;;5011154;28;20029;-75
2021/10/21 06:48:52;;;;;;;0.10;0.10;;;11.00;99.90;;;;;;5012229;28;20045;-76
2021/10/21 06:51:17;;;;;;;0.20;0.20;;;11.00;99.90;;;;;;5012605;28;20041;-75
2021/10/21 06:53:43;;;;;;;0.20;0.20;;;11.00;99.90;;;;;;5011451;28;20044;-76
2021/10/21 06:56:09;;;;;;;0.20;0.20;;;11.10;99.90;;;;;;5011045;28;20018;-78
2021/10/21 06:58:35;;;;;;;0.10;0.10;;;11.10;99.90;;;;;;5012352;28;20028;-78
2021/10/21 07:01:00;;;;;;;0.20;0.20;;;11.10;99.90;;;;;;5011814;28;20075;-76
2021/10/21 07:03:26;;;;;;;0.10;0.10;;;11.20;99.90;;;;;;5012329;28;20434;-77
2021/10/21 07:05:53;;;;;;;0.10;0.10;;;11.20;99.90;;;;;;5010276;28;20446;-76
2021/10/21 07:08:20;;;;;;;0.13;0.13;;;11.20;99.90;;;;;;5012323;28;20014;-77
2021/10/21 07:10:46;;;;;;;0.10;0.10;;;11.20;99.90;;;;;;5010448;28;20022;-76
2021/10/21 07:13:12;;;;;;;0.10;0.10;;;11.20;99.90;;;;;;5027058;28;20014;-76
2021/10/21 07:15:37;;;;;;;0.10;0.10;;;11.30;99.90;;;;;;5012307;28;20060;-76
2021/10/21 07:18:04;;;;;;;0.20;0.20;;;11.20;99.90;;;;;;5010202;28;20060;-76
2021/10/21 07:20:30;;;;;;;0.17;0.17;;;11.20;99.90;;;;;;5010990;28;20022;-77
2021/10/21 07:22:56;;;;;;;0.20;0.20;;;11.30;99.90;;;;;;5011535;28;20018;-77
2021/10/21 07:25:27;;;;;;;0.20;0.20;;;11.30;99.90;;;;;;5012178;28;20025;-77
2021/10/21 07:27:57;;;;;;;0.20;0.20;;;11.30;99.90;;;;;;5010188;28;20018;-77
2021/10/21 07:30:23;;;;;;;0.20;0.20;;;11.30;99.90;;;;;;5027240;28;20022;-77
2021/10/21 07:32:49;;;;;;;0.10;0.10;;;11.30;99.90;;;;;;5011419;28;20044;-77
2021/10/21 07:35:15;;;;;;;0.17;0.17;;;11.40;99.90;;;;;;5010523;28;20332;-78
2021/10/21 07:37:41;;;;;;;0.10;0.10;;;11.40;99.90;;;;;;5011468;28;20103;-77
2021/10/21 07:40:08;;;;;;;0.20;0.20;;;11.50;99.90;;;;;;5011982;28;20514;-76
2021/10/21 07:42:34;;;;;;;0.10;0.10;;;11.50;99.90;;;;;;5011648;28;20459;-77
2021/10/21 07:45:00;;;;;;;0.10;0.10;;;11.60;99.90;;;;;;5026563;28;20022;-77
2021/10/21 07:47:27;;;;;;;0.10;0.10;;;11.60;99.90;;;;;;5011873;28;20037;-77
2021/10/21 07:49:53;;;;;;;0.10;0.10;;;11.60;99.90;;;;;;5026384;28;20374;-78
2021/10/21 07:52:23;;;;;;;0.17;0.17;;;11.60;99.90;;;;;;5012146;28;20014;-78
2021/10/21 07:54:49;;;;;;;0.20;0.20;;;11.60;99.90;;;;;;5026530;28;20061;-78
2021/10/21 07:57:15;;;;;;;0.10;0.10;;;11.60;99.90;;;;;;5010541;28;20761;-78
2021/10/21 07:59:41;;;;;;;0.20;0.20;;;11.60;99.90;;;;;;5010422;28;20393;-78
2021/10/21 08:02:08;;;;;;;0.30;0.30;;;11.50;99.90;;;;;;5011494;28;20022;-79
2021/10/21 08:04:34;;;;;;;0.20;0.20;;;11.50;99.90;;;;;;5011728;28;20030;-78
2021/10/21 08:07:00;;;;;;;0.20;0.20;;;11.50;99.90;;;;;;5029977;28;20101;-76
2021/10/21 08:09:29;;;;;;;0.20;0.20;;;11.50;99.90;;;;;;5015286;28;20018;-76
2021/10/21 08:11:56;;;;;;;0.20;0.20;;;11.50;99.90;;;;;;5029983;28;20112;-76
2021/10/21 08:14:22;;;;;;;0.20;0.20;;;11.50;99.90;;;;;;5013953;28;20470;-76
2021/10/21 08:16:50;;;;;;;0.20;0.20;;;11.50;99.90;;;;;;5014581;28;20068;-78
2021/10/21 08:19:16;;;;;;;0.38;0.20;;;11.40;99.90;;;;;;5014930;28;20022;-78
2021/10/21 08:21:42;;;;;;;0.20;0.20;;;11.40;99.90;;;;;;5015173;28;20485;-78
2021/10/21 08:24:08;;;;;;;0.22;0.22;;;11.50;99.90;;;;;;5014481;28;20054;-78
2021/10/21 08:26:35;;;;;;;0.15;0.15;;;11.50;99.90;;;;;;5030381;28;20017;-77
2021/10/21 08:29:01;;;;;;;0.15;0.15;;;11.40;99.90;;;;;;5014133;28;20021;-78
2021/10/21 08:31:27;;;;;;;0.20;0.20;;;11.40;99.90;;;;;;5030056;28;20053;-78
2021/10/21 08:33:53;;;;;;;0.20;0.20;;;11.40;99.90;;;;;;5014170;28;20046;-76
2021/10/21 08:36:20;;;;;;;0.20;0.20;;;11.40;99.90;;;;;;5013238;28;20470;-77
2021/10/21 08:38:47;;;;;;;0.20;0.20;;;11.40;99.90;;;;;;5012917;28;20433;-78
2021/10/21 08:41:16;;;;;;;0.20;0.20;;;11.40;99.90;;;;;;5014673;28;20076;-79
2021/10/21 08:43:43;;;;;;;0.20;0.20;;;11.40;99.90;;;;;;5029919;28;20350;-77
2021/10/21 08:46:11;;;;;;;0.20;0.20;;;11.50;99.90;;;;;;5029248;28;20018;-76
2021/10/21 08:48:40;;;;;;;0.20;0.20;;;11.50;99.90;;;;;;5014688;28;20032;-77
2021/10/21 08:51:06;;;;;;;1.65;0.20;;;11.50;99.90;;;;;;5014013;28;20029;-77
2021/10/21 08:53:34;;;;;;;0.20;0.20;;;11.50;99.90;;;;;;5029742;28;20014;-77
2021/10/21 08:55:59;;;;;;;0.20;0.20;;;11.60;99.90;;;;;;5013882;28;20054;-77
2021/10/21 08:58:26;;;;;;;0.35;0.35;;;11.60;99.90;;;;;;5013221;28;20049;-76
2021/10/21 09:00:59;;;;;;;0.28;0.28;;;11.70;99.90;;;;;;5013778;28;20712;-77
2021/10/21 09:04:00;;;;;;;0.20;0.20;;;11.80;99.90;;;;;;5014387;28;20439;-77
2021/10/21 09:09:18;;;;;;;0.25;0.25;;;11.80;99.90;;;;;;5013762;28;20374;-77
2021/10/21 09:11:44;;;;;;;0.93;0.25;;;11.60;99.90;;;;;;5012846;28;20109;-77
2021/10/21 09:14:12;;;;;;;0.20;0.20;;;11.50;99.90;;;;;;5028762;28;20155;-77
2021/10/21 09:16:39;;;;;;;0.20;0.20;;;11.40;99.90;;;;;;5012946;28;20026;-77
2021/10/21 09:19:12;;;;;;;0.57;0.30;;;11.30;99.90;;;;;;5013445;28;20018;-76
2021/10/21 09:21:42;;;;;;;0.20;0.20;;;11.00;99.90;;;;;;5029181;28;20092;-77
2021/10/21 09:24:26;;;;;;;0.20;0.20;;;10.90;99.90;;;;;;5013463;28;20018;-78
2021/10/21 09:27:16;;;;;;;0.20;0.20;;;10.70;99.90;;;;;;5012151;28;20057;-77
2021/10/21 09:29:46;;;;;;;0.63;0.20;;;10.70;99.90;;;;;;5026574;28;20429;-78
2021/10/21 09:32:13;;;;;;;0.20;0.20;;;10.60;99.90;;;;;;5011942;28;20265;-78
2021/10/21 09:34:53;;;;;;;0.20;0.20;;;10.70;99.90;;;;;;5013890;28;20052;-77
2021/10/21 09:37:27;;;;;;;0.20;0.20;;;10.80;99.90;;;;;;5028921;28;20045;-77
2021/10/21 09:39:56;;;;;;;0.20;0.20;;;10.80;99.90;;;;;;5028285;28;20049;-77
2021/10/21 09:42:56;;;;;;;1.00;0.30;;;10.80;99.90;;;;;;5013212;28;20046;-77
2021/10/21 09:45:26;;;;;;;0.20;0.20;;;10.80;99.90;;;;;;5012829;28;20033;-77
2021/10/21 09:47:57;;;;;;;0.90;0.28;;;10.80;99.90;;;;;;5028153;28;20033;-77
2021/10/21 09:50:35;;;;;;;0.20;0.20;;;10.80;99.90;;;;;;5028743;28;20386;-76
2021/10/21 09:53:20;;;;;;;0.20;0.20;;;10.90;99.90;;;;;;5011776;28;20018;-77
2021/10/21 09:56:02;;;;;;;0.20;0.20;;;10.90;99.90;;;;;;5013483;28;20014;-77
2021/10/21 09:58:33;;;;;;;0.20;0.20;;;10.80;99.90;;;;;;5011998;28;20138;-78
2021/10/21 10:01:09;;;;;;;;;;;10.80;99.90;;;;;;5011840;28;20053;-77
2021/10/21 10:03:38;;;;;;;0.20;0.20;;;10.80;99.90;;;;;;5028410;28;19901;-77
2021/10/21 10:06:04;;;;;;;0.10;0.10;;;10.90;99.90;;;;;;5027801;28;20026;-77
2021/10/21 10:08:30;;;;;;;0.17;0.17;;;10.90;99.90;;;;;;5012874;28;20029;-79
2021/10/21 10:10:59;;;;;;;0.20;0.20;;;10.90;99.90;;;;;;5027391;28;20370;-77
2021/10/21 10:13:25;;;;;;;0.20;0.20;;;10.90;99.90;;;;;;5012670;28;20030;-77
2021/10/21 10:15:52;;;;;;;0.20;0.20;;;10.90;99.90;;;;;;5011706;28;20101;-77
2021/10/21 10:18:23;;;;;;;0.20;0.20;;;11.00;99.90;;;;;;5028132;28;20030;-77
2021/10/21 10:21:03;;;;;;;0.20;0.20;;;11.00;99.90;;;;;;5028373;28;20017;-77
2021/10/21 10:23:31;;;;;;;0.10;0.10;;;11.20;99.90;;;;;;5013041;28;20029;-78
2021/10/21 10:25:57;;;;;;;0.20;0.20;;;11.20;99.90;;;;;;5011915;28;20335;-77
2021/10/21 10:28:22;;;;;;;0.20;0.20;;;11.30;99.90;;;;;;5027728;28;20032;-77
2021/10/21 10:30:57;;;;;;;0.20;0.20;;;11.50;99.90;;;;;;5011452;28;20068;-77
2021/10/21 10:33:31;;;;;;;0.20;0.20;;;11.50;99.90;;;;;;5012643;28;20072;-78
2021/10/21 10:36:28;;;;;;;0.13;0.13;;;11.50;99.90;;;;;;5011672;28;20046;-77
2021/10/21 10:39:02;;;;;;;0.20;0.20;;;11.60;99.90;;;;;;5011503;28;20121;-77
2021/10/21 10:41:51;;;;;;;0.20;0.20;;;11.60;99.90;;;;;;5027866;28;20018;-76
2021/10/21 10:44:35;;;;;;;0.10;0.10;;;11.70;99.90;;;;;;5010767;28;20025;-78
2021/10/21 10:47:05;;;;;;;1.25;0.20;;;11.80;99.90;;;;;;5011870;28;20029;-77
2021/10/21 10:49:37;;;;;;;0.20;0.20;;;11.80;99.90;;;;;;5027742;28;20026;-77
2021/10/21 10:52:06;;;;;;;0.20;0.20;;;11.80;99.90;;;;;;5012049;28;20026;-78
2021/10/21 10:54:50;;;;;;;0.20;0.20;;;11.80;99.90;;;;;;5011066;28;20029;-78
2021/10/21 10:57:25;;;;;;;0.20;0.20;;;11.80;99.90;;;;;;5011856;28;20025;-77
2021/10/21 10:59:55;;;;;;;0.10;0.10;;;11.80;99.90;;;;;;5011105;28;20474;-78
2021/10/21 11:02:27;;;;;;;0.20;0.20;;;11.80;99.90;;;;;;5012420;28;20018;-78
2021/10/21 11:04:53;;;;;;;0.20;0.20;;;11.80;99.90;;;;;;5012016;28;20343;-75
2021/10/21 11:07:27;;;;;;;0.20;0.20;;;11.70;99.90;;;;;;5011743;28;20029;-76
2021/10/21 11:10:22;;;;;;;0.30;0.20;;;11.70;99.90;;;;;;5012379;28;20145;-76
2021/10/21 11:12:52;;;;;;;0.20;0.20;;;11.70;99.90;;;;;;5008019;28;20140;-77
2021/10/21 11:15:30;;;;;;;0.20;0.20;;;11.80;99.90;;;;;;5011556;28;20116;-76
2021/10/21 11:18:00;;;;;;;0.20;0.20;;;11.90;99.90;;;;;;5011942;28;20025;-76
2021/10/21 11:20:31;;;;;;;0.10;0.10;;;12.00;99.90;;;;;;5027352;28;20025;-77
2021/10/21 11:22:58;;;;;;;;;;;11.90;99.90;;;;;;5010603;28;20112;-76
2021/10/21 11:25:26;;;;;;;0.10;0.10;;;11.80;99.90;;;;;;5010619;28;19902;-76
2021/10/21 11:27:53;;;;;;;0.35;0.20;;;11.80;99.90;;;;;;5012102;28;20459;-76
2021/10/21 11:30:30;;;;;;;0.20;0.20;;;11.80;99.90;;;;;;5011500;28;20050;-77
2021/10/21 11:32:58;;;;;;;0.20;0.20;;;11.80;99.90;;;;;;5011905;28;20120;-77
2021/10/21 11:35:27;;;;;;;0.20;0.20;;;11.80;99.90;;;;;;5012049;28;20446;-77
2021/10/21 11:37:57;;;;;;;0.30;0.30;;;11.80;99.90;;;;;;5027219;28;20026;-77
2021/10/21 11:40:39;;;;;;;0.20;0.20;;;11.80;99.90;;;;;;5013611;28;20033;-77
2021/10/21 11:43:09;;;;;;;;;;;11.80;99.90;;;;;;5015700;28;20022;-76
2021/10/21 11:45:35;;;;;;;0.15;0.15;;;11.80;99.90;;;;;;5030902;28;19901;-77
2021/10/21 11:48:12;;;;;;;0.20;0.20;;;11.80;99.90;;;;;;5030274;28;20068;-77
2021/10/21 11:50:42;;;;;;;0.20;0.20;;;11.70;99.90;;;;;;5031107;28;20022;-77
2021/10/21 11:53:11;;;;;;;0.15;0.15;;;11.70;99.90;;;;;;5015139;28;20065;-78
2021/10/21 11:55:38;;;;;;;0.17;0.17;;;11.70;99.90;;;;;;5030864;28;20018;-78
2021/10/21 11:58:13;;;;;;;0.20;0.20;;;11.60;99.90;;;;;;5014831;28;20025;-77
2021/10/21 12:00:40;;;;;;;0.17;0.17;;;11.30;99.90;;;;;;5015477;28;20030;-78
2021/10/21 12:03:06;;;;;;;0.20;0.20;;;10.90;99.90;;;;;;5030100;28;20052;-78
2021/10/21 12:05:42;;;;;;;0.20;0.20;;;10.70;99.90;;;;;;5015467;28;20352;-78
2021/10/21 12:08:10;;;;;;;0.10;0.10;;;10.50;99.90;;;;;;5014892;28;20083;-78
2021/10/21 12:10:46;;;;;;;0.20;0.20;;;10.30;99.90;;;;;;5015169;28;20022;-78
2021/10/21 12:13:24;;;;;;;0.20;0.20;;;10.20;99.90;;;;;;5014761;28;20049;-78
2021/10/21 12:15:52;;;;;;;0.20;0.20;;;10.10;99.90;;;;;;5015272;28;20014;-78
2021/10/21 12:18:19;;;;;;;0.20;0.20;;;10.10;99.90;;;;;;5014528;28;20117;-77
2021/10/21 12:20:49;;;;;;;0.20;0.20;;;10.20;99.90;;;;;;5014955;28;20021;-76
2021/10/21 12:23:23;;;;;;;0.20;0.20;;;10.30;99.90;;;;;;5013271;28;20014;-78
2021/10/21 12:25:51;;;;;;;0.10;0.10;;;10.40;99.90;;;;;;5015013;28;20018;-78
2021/10/21 12:28:18;;;;;;;0.20;0.20;;;10.40;99.90;;;;;;5014187;28;20450;-78
2021/10/21 12:30:45;;;;;;;0.17;0.17;;;10.40;99.90;;;;;;5030019;28;20366;-77
2021/10/21 12:33:16;;;;;;;0.20;0.20;;;10.40;99.90;;;;;;5029590;28;20108;-77
2021/10/21 12:36:03;;;;;;;0.20;0.20;;;10.30;99.90;;;;;;5029814;28;20351;-78
2021/10/21 12:38:31;;;;;;;0.10;0.10;;;10.20;99.90;;;;;;5030104;28;20022;-77
2021/10/21 12:41:02;;;;;;;0.20;0.20;;;10.20;99.90;;;;;;5013422;28;20409;-78
2021/10/21 12:43:28;;;;;;;0.10;0.10;;;10.30;99.90;;;;;;5013827;28;20021;-77
2021/10/21 12:45:56;;;;;;;0.13;0.13;;;10.40;99.90;;;;;;5013400;28;20029;-77
2021/10/21 12:48:31;;;;;;;0.15;0.15;;;10.40;99.90;;;;;;5012892;28;20281;-78
2021/10/21 12:51:10;;;;;;;0.10;0.10;;;10.50;99.90;;;;;;5029696;28;20362;-78
2021/10/21 12:53:35;;;;;;;0.20;0.20;;;10.50;99.90;;;;;;5014652;28;20018;-78
2021/10/21 12:56:25;;;;;;;0.10;0.10;;;10.50;99.90;;;;;;5013313;28;20025;-78